createdAt,value
2018-05-09T00:01:03.319Z,7.63
2018-05-09T00:03:33.499Z,6.43
2018-05-09T00:06:02.727Z,7.00
2018-05-09T00:08:31.869Z,9.13
2018-05-09T00:11:01.015Z,6.37
2018-05-09T00:13:30.168Z,8.10
2018-05-09T00:15:59.385Z,7.43
2018-05-09T00:18:28.518Z,5.87
2018-05-09T00:20:58.482Z,7.43
2018-05-09T00:23:27.621Z,6.70
2018-05-09T00:25:57.541Z,7.27
2018-05-09T00:28:26.707Z,6.90
2018-05-09T00:30:55.854Z,5.43
2018-05-09T00:33:25.786Z,6.30
2018-05-09T00:35:55.904Z,6.00
2018-05-09T00:38:25.109Z,7.67
2018-05-09T00:40:54.208Z,6.30
2018-05-09T00:43:23.361Z,10.00
2018-05-09T00:45:52.553Z,5.32
2018-05-09T00:48:22.477Z,9.63
2018-05-09T00:50:52.602Z,8.20
2018-05-09T00:53:21.729Z,7.25
2018-05-09T00:55:50.872Z,7.90
2018-05-09T00:58:20.007Z,9.23
2018-05-09T01:00:49.164Z,5.30
2018-05-09T01:03:18.294Z,8.13
2018-05-09T01:05:47.441Z,13.87
2018-05-09T01:29:32.125Z,7.20
2018-05-09T01:32:01.293Z,8.37
2018-05-09T01:34:30.422Z,7.10
2018-05-09T01:36:59.616Z,6.50
2018-05-09T01:39:29.717Z,8.57
2018-05-09T01:41:59.634Z,7.00
2018-05-09T01:44:29.001Z,6.10
2018-05-09T01:46:58.378Z,7.27
2018-05-09T01:49:27.514Z,6.77
2018-05-09T01:51:57.622Z,8.20
2018-05-09T01:54:26.775Z,7.70
2018-05-09T01:56:55.949Z,7.43
2018-05-09T01:59:25.099Z,8.07
2018-05-09T02:01:55.012Z,12.47
2018-05-09T02:04:24.949Z,6.60
2018-05-09T02:06:54.082Z,6.10
2018-05-09T02:09:23.238Z,7.03
2018-05-09T02:11:52.386Z,9.13
2018-05-09T02:14:21.540Z,8.48
2018-05-09T02:16:50.688Z,6.00
2018-05-09T02:19:19.809Z,10.05
2018-05-09T02:21:49.079Z,7.30
2018-05-09T02:24:18.242Z,7.70
2018-05-09T02:26:47.405Z,10.03
2018-05-09T02:29:17.303Z,9.77
2018-05-09T02:31:47.274Z,5.93
2018-05-09T02:34:17.171Z,10.55
2018-05-09T02:36:46.383Z,8.93
2018-05-09T02:39:15.525Z,7.82
2018-05-09T02:41:45.469Z,9.37
2018-05-09T02:44:14.628Z,11.73
2018-05-09T02:46:43.796Z,10.73
2018-05-09T02:49:12.959Z,7.60
2018-05-09T02:51:42.949Z,10.13
2018-05-09T02:54:12.116Z,12.13
2018-05-09T02:56:41.288Z,9.63
2018-05-09T02:59:10.425Z,6.73
2018-05-09T03:01:39.583Z,7.90
2018-05-09T03:04:08.747Z,5.93
2018-05-09T03:06:37.893Z,10.27
2018-05-09T03:09:07.348Z,12.43
2018-05-09T03:11:38.085Z,9.80
2018-05-09T03:14:08.346Z,8.33
2018-05-09T03:16:37.484Z,9.23
2018-05-09T03:19:07.410Z,10.37
2018-05-09T03:21:36.602Z,8.60
2018-05-09T03:24:07.769Z,10.83
2018-05-09T03:26:36.922Z,6.90
2018-05-09T03:29:07.318Z,12.33
2018-05-09T03:31:36.499Z,7.30
2018-05-09T03:34:05.657Z,9.50
2018-05-09T03:36:34.837Z,7.90
2018-05-09T03:39:04.919Z,10.87
2018-05-09T03:41:34.698Z,12.90
2018-05-09T03:44:03.823Z,13.53
2018-05-09T03:46:32.996Z,10.93
2018-05-09T03:49:02.930Z,7.43
2018-05-09T03:51:32.094Z,11.80
2018-05-09T03:54:01.361Z,12.23
2018-05-09T03:56:31.738Z,12.30
2018-05-09T03:59:00.871Z,9.30
2018-05-09T04:04:51.794Z,9.70
2018-05-09T04:07:38.841Z,9.10
2018-05-09T04:10:08.610Z,8.27
2018-05-09T04:12:37.764Z,13.33
2018-05-09T04:15:08.309Z,7.47
2018-05-09T04:17:37.483Z,10.10
2018-05-09T04:20:08.381Z,13.13
2018-05-09T04:22:37.565Z,10.07
2018-05-09T04:25:07.661Z,16.27
2018-05-09T04:27:36.802Z,13.30
2018-05-09T04:30:05.935Z,9.40
2018-05-09T04:32:35.100Z,19.60
2018-05-09T04:35:04.265Z,18.53
2018-05-09T04:37:34.198Z,12.83
2018-05-09T04:40:03.410Z,10.30
2018-05-09T04:42:32.582Z,13.93
2018-05-09T04:45:04.531Z,19.00
2018-05-09T04:47:34.486Z,14.27
2018-05-09T04:50:03.640Z,19.80
2018-05-09T04:52:33.618Z,12.67
2018-05-09T04:55:02.759Z,9.65
2018-05-09T04:57:32.695Z,11.17
2018-05-09T05:00:01.873Z,15.40
2018-05-09T05:02:31.821Z,10.30
2018-05-09T05:05:00.989Z,13.50
2018-05-09T05:07:30.921Z,14.50
2018-05-09T05:10:00.070Z,13.73
2018-05-09T05:12:29.262Z,13.07
2018-05-09T05:14:59.177Z,11.27
2018-05-09T05:17:28.343Z,16.67
2018-05-09T05:19:58.446Z,10.43
2018-05-09T05:22:27.632Z,17.07
2018-05-09T05:24:56.778Z,12.73
2018-05-09T05:27:25.947Z,16.57
2018-05-09T05:29:55.196Z,13.70
2018-05-09T05:32:24.403Z,11.90
2018-05-09T05:34:53.539Z,10.93
2018-05-09T05:37:23.478Z,8.20
2018-05-09T05:39:52.647Z,11.60
2018-05-09T05:42:21.848Z,17.00
2018-05-09T05:44:51.011Z,10.43
2018-05-09T05:47:20.538Z,18.77
2018-05-09T05:49:50.443Z,14.33
2018-05-09T05:52:20.384Z,14.73
2018-05-09T05:54:49.578Z,7.43
2018-05-09T05:57:19.705Z,14.02
2018-05-09T05:59:48.893Z,12.83
2018-05-09T06:02:18.058Z,14.87
2018-05-09T06:04:47.221Z,9.30
2018-05-09T06:07:17.190Z,9.68
2018-05-09T06:09:47.743Z,8.80
2018-05-09T06:12:16.890Z,17.27
2018-05-09T06:14:46.066Z,12.03
2018-05-09T06:17:15.249Z,10.15
2018-05-09T06:19:45.169Z,12.93
2018-05-09T06:22:15.162Z,13.30
2018-05-09T06:24:44.316Z,15.13
2018-05-09T06:27:13.450Z,6.53
2018-05-09T06:29:42.608Z,10.90
2018-05-09T06:32:12.550Z,10.90
2018-05-09T06:34:41.728Z,10.70
2018-05-09T06:37:11.692Z,9.37
2018-05-09T06:39:40.911Z,8.20
2018-05-09T06:42:10.879Z,8.77
2018-05-09T06:44:40.798Z,8.30
2018-05-09T06:47:10.724Z,10.93
2018-05-09T06:49:39.896Z,15.03
2018-05-09T06:52:09.818Z,14.87
2018-05-09T06:54:39.743Z,11.57
2018-05-09T06:57:09.118Z,11.83
2018-05-09T06:59:38.267Z,8.47
2018-05-09T07:02:08.081Z,15.67
2018-05-09T07:04:37.270Z,12.10
2018-05-09T07:07:06.415Z,8.00
2018-05-09T07:09:35.589Z,10.27
2018-05-09T07:12:05.775Z,10.60
2018-05-09T07:14:34.957Z,12.63
2018-05-09T07:17:04.879Z,11.37
2018-05-09T07:19:34.798Z,13.27
2018-05-09T07:22:03.954Z,13.63
2018-05-09T07:24:33.177Z,11.20
2018-05-09T07:27:03.081Z,9.77
2018-05-09T07:29:32.261Z,8.90
2018-05-09T07:32:02.208Z,11.70
2018-05-09T07:34:32.125Z,16.00
2018-05-09T07:37:02.015Z,16.73
2018-05-09T07:39:31.957Z,9.57
2018-05-09T07:42:01.874Z,9.93
2018-05-09T07:44:31.790Z,11.33
2018-05-09T07:47:01.710Z,13.60
2018-05-09T07:49:30.878Z,12.47
2018-05-09T07:52:00.038Z,9.77
2018-05-09T07:54:29.160Z,15.43
2018-05-09T07:56:58.307Z,13.80
2018-05-09T07:59:28.232Z,21.00
2018-05-09T08:01:57.387Z,10.27
2018-05-09T08:04:26.587Z,12.93
2018-05-09T08:06:55.796Z,7.97
2018-05-09T08:09:25.773Z,9.60
2018-05-09T08:11:54.932Z,10.70
2018-05-09T08:14:24.070Z,9.88
2018-05-09T08:16:53.218Z,11.13
2018-05-09T08:19:23.367Z,9.15
2018-05-09T08:21:53.289Z,7.27
2018-05-09T08:24:23.214Z,11.93
2018-05-09T08:26:52.366Z,8.37
2018-05-09T08:29:21.554Z,7.30
2018-05-09T08:31:50.693Z,11.10
2018-05-09T08:34:20.620Z,9.50
2018-05-09T08:36:49.780Z,11.03
2018-05-09T08:39:18.914Z,10.18
2018-05-09T08:41:48.078Z,7.27
2018-05-09T08:44:17.211Z,10.00
2018-05-09T08:46:46.451Z,13.50
2018-05-09T08:49:15.680Z,10.70
2018-05-09T08:51:44.822Z,7.80
2018-05-09T08:54:13.951Z,11.98
2018-05-09T08:56:43.140Z,7.90
2018-05-09T08:59:12.289Z,10.03
2018-05-09T09:01:42.209Z,11.33
2018-05-09T09:04:12.182Z,8.30
2018-05-09T09:06:42.035Z,11.00
2018-05-09T09:09:11.988Z,7.07
2018-05-09T09:11:41.113Z,9.50
2018-05-09T09:14:10.251Z,6.63
2018-05-09T09:16:39.406Z,12.70
2018-05-09T09:19:08.562Z,11.67
2018-05-09T09:21:37.730Z,6.07
2018-05-09T09:24:08.907Z,10.70
2018-05-09T09:26:38.044Z,11.93
2018-05-09T09:29:08.549Z,12.60
2018-05-09T09:31:37.575Z,7.90
2018-05-09T09:34:08.740Z,10.00
2018-05-09T09:36:38.661Z,16.23
2018-05-09T09:39:08.624Z,9.57
2018-05-09T09:41:37.773Z,9.70
2018-05-09T09:44:08.904Z,9.07
2018-05-09T09:46:38.863Z,11.53
2018-05-09T09:49:08.577Z,8.40
2018-05-09T09:51:37.737Z,11.83
2018-05-09T09:54:08.869Z,8.30
2018-05-09T09:56:38.812Z,8.57
2018-05-09T09:59:08.609Z,12.87
2018-05-09T10:01:37.902Z,11.10
2018-05-09T10:04:06.963Z,7.07
2018-05-09T10:06:36.125Z,11.00
2018-05-09T10:09:06.017Z,8.53
2018-05-09T10:11:35.931Z,8.10
2018-05-09T10:14:05.854Z,9.30
2018-05-09T10:16:34.994Z,10.77
2018-05-09T10:19:04.155Z,8.60
2018-05-09T10:21:33.312Z,9.50
2018-05-09T10:24:02.480Z,28.50
2018-05-09T10:26:31.650Z,6.70
2018-05-09T10:29:00.801Z,13.33
2018-05-09T10:31:30.069Z,7.30
2018-05-09T10:33:59.131Z,8.17
2018-05-09T10:36:28.316Z,10.27
2018-05-09T10:38:58.213Z,7.83
2018-05-09T10:41:27.371Z,14.83
2018-05-09T10:43:56.499Z,14.77
2018-05-09T10:46:25.663Z,8.23
2018-05-09T10:48:54.803Z,9.03
2018-05-09T10:51:23.937Z,9.98
2018-05-09T10:53:53.870Z,11.60
2018-05-09T10:56:23.013Z,10.43
2018-05-09T10:58:52.151Z,5.43
2018-05-09T11:01:21.297Z,11.50
2018-05-09T11:03:50.496Z,12.43
2018-05-09T11:06:19.634Z,10.48
2018-05-09T11:08:48.798Z,9.17
2018-05-09T11:11:19.835Z,15.65
2018-05-09T11:13:49.779Z,10.13
2018-05-09T11:16:18.946Z,9.48
2018-05-09T11:18:48.962Z,10.40
2018-05-09T11:21:19.015Z,9.52
2018-05-09T11:23:48.206Z,12.63
2018-05-09T11:26:17.424Z,15.35
2018-05-09T11:28:46.594Z,8.60
2018-05-09T11:31:15.831Z,7.32
2018-05-09T11:33:45.699Z,11.43
2018-05-09T11:36:14.905Z,12.68
2018-05-09T11:38:44.042Z,10.50
2018-05-09T11:41:13.954Z,8.65
2018-05-09T11:43:43.108Z,8.80
2018-05-09T11:46:12.261Z,6.60
2018-05-09T11:48:41.446Z,10.33
2018-05-09T11:51:10.611Z,7.70
2018-05-09T11:53:39.759Z,9.47
2018-05-09T11:56:09.042Z,14.73
2018-05-09T11:58:38.245Z,9.47
2018-05-09T12:01:07.401Z,9.17
2018-05-09T12:03:36.575Z,9.03
2018-05-09T12:06:05.724Z,11.13
2018-05-09T12:08:34.902Z,6.70
2018-05-09T12:11:04.819Z,11.83
2018-05-09T12:13:34.809Z,8.10
2018-05-09T12:16:03.962Z,5.30
2018-05-09T12:18:33.150Z,11.57
2018-05-09T12:21:03.081Z,11.90
2018-05-09T12:23:32.288Z,18.03
2018-05-09T12:26:01.468Z,11.03
2018-05-09T12:28:30.611Z,9.67
2018-05-09T12:31:00.544Z,14.27
2018-05-09T12:33:30.686Z,8.60
2018-05-09T12:35:59.845Z,9.70
2018-05-09T12:38:30.486Z,5.77
2018-05-09T12:40:59.637Z,8.30
2018-05-09T12:43:28.773Z,5.80
2018-05-09T12:45:57.957Z,7.07
2018-05-09T12:48:28.889Z,8.38
2018-05-09T12:50:58.137Z,9.73
2018-05-09T12:53:28.247Z,8.57
2018-05-09T12:55:57.410Z,5.70
2018-05-09T12:58:28.267Z,5.32
2018-05-09T13:00:57.419Z,6.53
2018-05-09T13:03:27.606Z,7.90
2018-05-09T13:05:56.955Z,10.37
2018-05-09T13:08:26.840Z,6.18
2018-05-09T13:10:56.135Z,7.40
2018-05-09T13:13:25.357Z,7.00
2018-05-09T13:15:54.505Z,6.33
2018-05-09T13:18:23.752Z,8.40
2018-05-09T13:20:53.219Z,9.00
2018-05-09T13:23:22.388Z,7.32
2018-05-09T13:25:52.389Z,6.83
2018-05-09T13:28:21.542Z,5.10
2018-05-09T13:30:51.451Z,6.27
2018-05-09T13:33:20.609Z,5.62
2018-05-09T13:35:50.527Z,6.30
2018-05-09T13:38:21.401Z,12.50
2018-05-09T13:40:50.547Z,10.73
2018-05-09T13:43:19.727Z,15.68
2018-05-09T13:45:48.904Z,7.97
2018-05-09T13:48:18.073Z,10.50
2018-05-09T13:50:47.235Z,12.87
2018-05-09T13:53:16.431Z,10.43
2018-05-09T13:55:45.577Z,9.33
2018-05-09T13:58:14.922Z,8.17
2018-05-09T14:00:44.102Z,11.83
2018-05-09T14:03:13.338Z,9.87
2018-05-09T14:05:43.285Z,10.13
2018-05-09T14:08:12.431Z,10.13
2018-05-09T14:10:41.574Z,11.93
2018-05-09T14:13:11.686Z,7.73
2018-05-09T14:15:40.910Z,9.90
2018-05-09T14:18:10.090Z,6.60
2018-05-09T14:20:39.246Z,10.87
2018-05-09T14:23:09.361Z,8.17
2018-05-09T14:25:38.498Z,11.57
2018-05-09T14:28:08.603Z,7.63
2018-05-09T14:30:38.542Z,8.30
2018-05-09T14:33:07.718Z,8.83
2018-05-09T14:35:36.862Z,10.83
2018-05-09T14:38:06.011Z,6.17
2018-05-09T14:40:36.021Z,12.90
2018-05-09T14:43:05.111Z,7.87
2018-05-09T14:45:34.268Z,8.57
2018-05-09T14:48:03.447Z,6.47
2018-05-09T14:50:32.578Z,7.00
2018-05-09T14:53:02.664Z,7.63
2018-05-09T14:55:31.841Z,11.20
2018-05-09T14:58:00.987Z,8.63
2018-05-09T15:00:36.468Z,5.93
2018-05-09T15:03:11.125Z,4.53
2018-05-09T15:05:45.828Z,5.70
2018-05-09T15:08:20.395Z,7.97
2018-05-09T15:10:49.642Z,6.17
2018-05-09T15:13:19.547Z,7.93
2018-05-09T15:15:48.891Z,4.67
2018-05-09T15:18:18.089Z,6.35
2018-05-09T15:20:47.247Z,6.33
2018-05-09T15:23:17.198Z,8.02
2018-05-09T15:25:46.880Z,5.10
2018-05-09T15:28:16.857Z,11.40
2018-05-09T15:30:46.024Z,8.30
2018-05-09T15:33:15.197Z,14.55
2018-05-09T15:35:45.147Z,11.83
2018-05-09T15:38:14.410Z,12.07
2018-05-09T15:40:43.959Z,10.47
2018-05-09T15:43:13.893Z,13.45
2018-05-09T15:45:43.045Z,8.73
2018-05-09T15:48:12.278Z,7.60
2018-05-09T15:50:42.581Z,11.83
2018-05-09T15:53:11.741Z,6.80
2018-05-09T15:55:41.748Z,8.00
2018-05-09T15:58:11.658Z,6.60
2018-05-09T16:00:41.667Z,10.13
2018-05-09T16:03:11.610Z,5.50
2018-05-09T16:05:41.042Z,10.77
2018-05-09T16:08:13.291Z,8.95
2018-05-09T16:10:42.453Z,14.40
2018-05-09T16:13:12.391Z,6.77
2018-05-09T16:15:41.706Z,7.37
2018-05-09T16:18:10.861Z,7.63
2018-05-09T16:20:40.128Z,6.73
2018-05-09T16:23:09.276Z,6.57
2018-05-09T16:25:39.208Z,9.43
2018-05-09T16:28:09.214Z,4.70
2018-05-09T16:30:38.418Z,6.90
2018-05-09T16:33:07.551Z,7.60
2018-05-09T16:35:36.751Z,6.97
2018-05-09T16:38:05.912Z,6.17
2018-05-09T16:40:35.067Z,10.93
2018-05-09T16:43:04.233Z,8.30
2018-05-09T16:45:33.377Z,6.83
2018-05-09T16:48:03.303Z,5.27
2018-05-09T16:50:33.211Z,9.57
2018-05-09T16:53:03.184Z,7.63
2018-05-09T16:55:32.374Z,10.23
2018-05-09T16:58:01.532Z,8.10
2018-05-09T17:00:31.426Z,8.95
2018-05-09T17:03:01.362Z,5.37
2018-05-09T17:05:31.565Z,10.38
2018-05-09T17:08:01.511Z,8.25
2018-05-09T17:10:30.693Z,5.90
2018-05-09T17:12:59.895Z,6.82
2018-05-09T17:15:29.822Z,8.98
2018-05-09T17:17:58.988Z,13.82
2018-05-09T17:20:28.909Z,12.80
2018-05-09T17:22:58.846Z,6.50
2018-05-09T17:25:28.744Z,5.87
2018-05-09T17:27:58.755Z,5.57
2018-05-09T17:30:28.706Z,5.85
2018-05-09T17:32:58.742Z,4.95
2018-05-09T17:35:32.359Z,5.85
2018-05-09T17:38:02.007Z,7.00
2018-05-09T17:40:31.926Z,12.02
2018-05-09T17:43:01.098Z,8.23
2018-05-09T17:45:30.276Z,12.85
2018-05-09T17:48:02.874Z,8.50
2018-05-09T17:50:32.084Z,10.90
2018-05-09T17:53:01.292Z,7.28
2018-05-09T17:55:30.551Z,9.13
2018-05-09T17:58:00.453Z,5.47
2018-05-09T18:00:29.609Z,7.87
2018-05-09T18:02:59.554Z,10.20
2018-05-09T18:05:28.763Z,14.98
2018-05-09T18:07:58.839Z,18.77
2018-05-09T18:10:28.787Z,28.77
2018-05-09T18:12:57.924Z,18.40
2018-05-09T18:15:27.885Z,5.78
2018-05-09T18:17:57.077Z,9.13
2018-05-09T18:20:26.225Z,11.40
2018-05-09T18:22:56.406Z,10.53
2018-05-09T18:25:25.603Z,6.47
2018-05-09T18:27:57.978Z,11.57
2018-05-09T18:30:27.924Z,9.75
2018-05-09T18:32:57.579Z,14.23
2018-05-09T18:35:26.784Z,11.95
2018-05-09T18:37:56.922Z,9.80
2018-05-09T18:40:26.392Z,9.00
2018-05-09T18:42:56.306Z,8.93
2018-05-09T18:45:26.245Z,8.60
2018-05-09T18:47:55.430Z,8.10
2018-05-09T18:50:25.379Z,8.57
2018-05-09T18:52:54.535Z,9.50
2018-05-09T18:55:24.448Z,10.07
2018-05-09T18:57:53.620Z,20.97
2018-05-09T19:00:22.824Z,14.05
2018-05-09T19:02:53.012Z,10.13
2018-05-09T19:05:22.181Z,8.90
2018-05-09T19:07:51.790Z,13.40
2018-05-09T19:10:21.023Z,12.07
2018-05-09T19:12:50.239Z,9.13
2018-05-09T19:15:19.438Z,8.67
2018-05-09T19:17:48.626Z,11.40
2018-05-09T19:20:17.829Z,9.65
2018-05-09T19:22:46.987Z,13.70
2018-05-09T19:25:16.186Z,6.50
2018-05-09T19:27:45.357Z,10.20
2018-05-09T19:30:15.052Z,6.30
2018-05-09T19:32:44.232Z,8.67
2018-05-09T19:35:14.196Z,9.23
2018-05-09T19:37:43.371Z,7.87
2018-05-09T19:40:13.341Z,7.80
2018-05-09T19:42:42.536Z,42.90
2018-05-09T19:45:11.731Z,65.80
2018-05-09T19:47:40.921Z,111.47
2018-05-09T19:50:10.856Z,81.67
2018-05-09T19:52:40.102Z,100.57
2018-05-09T19:55:10.058Z,73.47
2018-05-09T19:57:39.214Z,54.60
2018-05-09T20:00:10.407Z,37.03
2018-05-09T20:02:39.715Z,46.87
2018-05-09T20:05:11.049Z,19.05
2018-05-09T20:07:40.260Z,14.43
2018-05-09T20:10:10.405Z,18.30
2018-05-09T20:12:40.376Z,19.80
2018-05-09T20:15:10.080Z,8.50
2018-05-09T20:17:39.213Z,24.70
2018-05-09T20:20:08.438Z,13.00
2018-05-09T20:22:38.387Z,11.73
2018-05-09T20:25:08.562Z,15.73
2018-05-09T20:27:38.574Z,19.23
2018-05-09T20:30:13.133Z,16.03
2018-05-09T20:32:43.329Z,11.30
2018-05-09T20:35:14.333Z,20.90
2018-05-09T20:37:43.537Z,18.83
2018-05-09T20:40:12.752Z,13.83
2018-05-09T20:42:41.955Z,18.30
2018-05-09T20:45:11.152Z,16.23
2018-05-09T20:47:40.344Z,23.43
2018-05-09T20:50:10.341Z,28.33
2018-05-09T20:52:39.541Z,24.33
2018-05-09T20:55:26.196Z,20.73
2018-05-09T20:57:56.150Z,21.70
2018-05-09T21:00:25.352Z,26.05
2018-05-09T21:02:54.550Z,18.33
2018-05-09T21:05:24.670Z,18.07
2018-05-09T21:07:57.662Z,12.00
2018-05-09T21:10:26.839Z,15.45
2018-05-09T21:12:56.042Z,24.47
2018-05-09T21:15:26.195Z,17.80
2018-05-09T21:17:55.360Z,17.33
2018-05-09T21:20:24.572Z,21.75
2018-05-09T21:22:53.772Z,15.43
2018-05-09T21:25:22.972Z,21.33
2018-05-09T21:27:52.196Z,18.60
2018-05-09T21:30:22.301Z,17.20
2018-05-09T21:32:51.498Z,13.57
2018-05-09T21:35:21.661Z,16.70
2018-05-09T21:37:50.814Z,15.83
2018-05-09T21:40:20.899Z,23.55
2018-05-09T21:42:50.102Z,13.87
2018-05-09T21:45:21.329Z,12.90
2018-05-09T21:47:52.721Z,16.57
2018-05-09T21:50:24.213Z,17.17
2018-05-09T21:52:57.329Z,11.83
2018-05-09T21:55:27.759Z,18.43
2018-05-09T21:57:59.636Z,12.53
2018-05-09T22:00:32.687Z,14.00
2018-05-09T22:03:04.634Z,16.73
2018-05-09T22:05:36.530Z,16.23
2018-05-09T22:08:09.026Z,16.73
2018-05-09T22:10:38.402Z,15.03
2018-05-09T22:13:10.984Z,12.00
2018-05-09T22:15:43.036Z,17.03
2018-05-09T22:18:14.181Z,20.73
2018-05-09T22:20:43.803Z,11.57
2018-05-09T22:23:15.144Z,17.70
2018-05-09T22:25:47.300Z,13.93
2018-05-09T22:28:20.600Z,22.33
2018-05-09T22:30:51.390Z,16.03
2018-05-09T22:33:22.953Z,11.30
2018-05-09T22:35:52.427Z,14.20
2018-05-09T22:38:24.194Z,13.27
2018-05-09T22:40:54.509Z,13.53
2018-05-09T22:43:23.677Z,15.43
2018-05-09T22:45:52.828Z,19.20
2018-05-09T22:48:22.941Z,14.27
2018-05-09T22:50:52.069Z,11.20
2018-05-09T22:53:22.009Z,17.50
2018-05-09T22:55:51.174Z,18.07
2018-05-09T22:58:21.197Z,18.48
2018-05-09T23:00:51.117Z,16.00
2018-05-09T23:03:22.061Z,14.27
2018-05-09T23:05:52.034Z,14.50
2018-05-09T23:08:21.193Z,14.33
2018-05-09T23:10:50.373Z,12.93
2018-05-09T23:13:20.350Z,15.52
2018-05-09T23:15:49.522Z,12.10
2018-05-09T23:18:18.652Z,14.90
2018-05-09T23:20:47.813Z,19.03
2018-05-09T23:23:17.764Z,13.38
2018-05-09T23:25:46.925Z,16.03
2018-05-09T23:28:17.041Z,9.35
2018-05-09T23:30:46.228Z,11.37
2018-05-09T23:33:15.400Z,12.57
2018-05-09T23:35:45.418Z,14.80
2018-05-09T23:38:15.382Z,20.77
2018-05-09T23:40:44.626Z,14.87
2018-05-09T23:43:13.766Z,14.60
2018-05-09T23:45:42.981Z,12.70
2018-05-09T23:48:12.130Z,14.27
2018-05-09T23:50:42.070Z,12.83
2018-05-09T23:53:11.493Z,13.20
2018-05-09T23:55:40.682Z,11.93
2018-05-09T23:58:10.802Z,15.30
